Time;durP1;ratioP1;P1;durP2;ratioP2;P2;SDS_P1;SDS_P2;PMS_P1;PMS_P2;Temp;Humidity;BMP_temperature;BMP_pressure;BME280_temperature;BME280_humidity;BME280_pressure;Samples;Min_cycle;Max_cycle;Signal;HPM_P1;HPM_P2
2023/09/11 00:00:42;;;;;;;10.85;8.20;;;16.30;99.90;;;;;;5034747;28;20202;-78
2023/09/11 00:03:09;;;;;;;9.85;8.38;;;16.50;99.90;;;;;;5017401;28;20196;-78
2023/09/11 00:05:35;;;;;;;12.93;8.15;;;16.80;99.90;;;;;;5018004;28;20224;-79
2023/09/11 00:08:02;;;;;;;13.05;8.88;;;16.80;99.90;;;;;;5016856;28;20204;-78
2023/09/11 00:10:32;;;;;;;11.77;8.25;;;16.90;99.90;;;;;;5007207;28;20228;-79
2023/09/11 00:12:59;;;;;;;7.00;5.18;;;16.80;99.90;;;;;;5015937;28;20273;-79
2023/09/11 00:15:26;;;;;;;6.60;5.72;;;16.60;99.90;;;;;;5016772;28;20220;-78
2023/09/11 00:17:53;;;;;;;11.57;5.43;;;16.30;99.90;;;;;;5016263;28;20210;-78
2023/09/11 00:20:20;;;;;;;6.40;5.55;;;16.30;99.90;;;;;;5021295;28;20569;-78
2023/09/11 00:22:47;;;;;;;9.00;6.40;;;16.20;99.90;;;;;;5019839;28;20231;-78
2023/09/11 00:25:13;;;;;;;7.95;7.15;;;16.20;99.90;;;;;;5016762;28;20224;-78
2023/09/11 00:27:42;;;;;;;12.02;8.77;;;16.20;99.90;;;;;;5017157;28;20216;-78
2023/09/11 00:30:09;;;;;;;16.80;14.65;;;16.10;99.90;;;;;;5016167;28;20699;-78
2023/09/11 00:32:36;;;;;;;17.17;15.05;;;15.80;99.90;;;;;;5016364;28;20238;-78
2023/09/11 00:35:03;;;;;;;16.00;12.73;;;15.50;99.90;;;;;;5016053;28;20707;-79
2023/09/11 00:37:30;;;;;;;16.15;12.07;;;15.40;99.90;;;;;;5019615;28;20200;-79
2023/09/11 00:39:57;;;;;;;13.43;10.85;;;15.60;99.90;;;;;;5016016;28;20211;-78
2023/09/11 00:42:23;;;;;;;14.10;11.25;;;15.80;99.90;;;;;;4995665;28;20201;-78
2023/09/11 00:44:53;;;;;;;23.08;14.55;;;15.90;99.90;;;;;;5003532;28;20227;-79
2023/09/11 00:47:20;;;;;;;16.30;12.63;;;15.70;99.90;;;;;;5016059;28;20200;-78
2023/09/11 00:49:47;;;;;;;20.15;13.40;;;15.50;99.90;;;;;;5019722;28;20226;-78
2023/09/11 00:52:14;;;;;;;14.15;10.68;;;15.40;99.90;;;;;;5019101;28;20216;-79
2023/09/11 00:54:41;;;;;;;13.93;10.52;;;15.40;99.90;;;;;;5024011;28;20219;-79
2023/09/11 00:57:08;;;;;;;14.77;10.20;;;15.70;99.90;;;;;;5015652;28;20254;-79
2023/09/11 00:59:35;;;;;;;14.15;10.48;;;15.90;99.90;;;;;;5021532;28;20207;-79
2023/09/11 01:02:04;;;;;;;14.57;10.38;;;15.80;99.90;;;;;;5024758;28;20576;-78
2023/09/11 01:04:31;;;;;;;16.10;11.38;;;15.80;99.90;;;;;;5019940;28;20210;-78
2023/09/11 01:06:57;;;;;;;15.35;10.00;;;16.00;99.90;;;;;;5016101;28;20208;-78
2023/09/11 01:09:24;;;;;;;12.80;9.70;;;16.20;99.90;;;;;;5015890;28;20215;-79
2023/09/11 01:11:51;;;;;;;13.35;9.63;;;16.30;99.90;;;;;;5015090;28;20196;-78
2023/09/11 01:14:18;;;;;;;12.25;10.32;;;16.30;99.90;;;;;;5015499;28;20209;-79
2023/09/11 01:16:57;;;;;;;13.82;10.05;;;16.40;99.90;;;;;;5015375;28;20203;-79
2023/09/11 01:19:41;;;;;;;24.60;12.38;;;16.20;99.90;;;;;;5013831;28;20248;-79
2023/09/11 01:22:35;;;;;;;33.05;16.40;;;15.40;99.90;;;;;;5014680;28;20287;-78
2023/09/11 01:25:35;;;;;;;19.38;12.98;;;15.10;99.90;;;;;;5019288;28;20651;-78
2023/09/11 01:28:32;;;;;;;15.68;11.45;;;15.20;99.90;;;;;;5016917;28;20204;-79
2023/09/11 01:31:02;;;;;;;16.20;12.05;;;15.40;99.90;;;;;;5008648;28;20233;-78
2023/09/11 01:33:29;;;;;;;16.98;11.43;;;15.60;99.90;;;;;;5021054;28;20290;-78
2023/09/11 01:35:55;;;;;;;12.70;10.18;;;15.80;99.90;;;;;;5014245;28;20220;-79
2023/09/11 01:38:23;;;;;;;14.63;10.35;;;15.90;99.90;;;;;;5018111;28;20196;-78
2023/09/11 01:40:54;;;;;;;13.07;9.55;;;15.90;99.90;;;;;;5032854;28;20196;-78
2023/09/11 01:43:26;;;;;;;15.23;10.15;;;16.10;99.90;;;;;;5014687;28;20783;-78
2023/09/11 01:45:53;;;;;;;14.10;9.70;;;16.10;99.90;;;;;;5013076;28;20222;-78
2023/09/11 01:48:22;;;;;;;16.08;11.10;;;16.20;99.90;;;;;;5012902;28;20208;-78
2023/09/11 01:50:49;;;;;;;19.48;13.13;;;16.20;99.90;;;;;;5015417;28;20743;-78
2023/09/11 01:53:16;;;;;;;20.58;14.90;;;15.80;99.90;;;;;;5024409;28;20207;-78
2023/09/11 01:55:44;;;;;;;16.98;13.30;;;15.40;99.90;;;;;;5033444;28;20219;-78
2023/09/11 01:58:12;;;;;;;16.50;12.88;;;15.10;99.90;;;;;;5017320;28;20652;-77
2023/09/11 02:00:39;;;;;;;14.77;12.52;;;14.90;99.90;;;;;;5015462;28;20708;-78
2023/09/11 02:03:06;;;;;;;16.40;11.93;;;14.80;99.90;;;;;;5014243;28;20204;-77
2023/09/11 02:05:34;;;;;;;16.80;12.00;;;14.90;99.90;;;;;;5014266;28;20232;-77
2023/09/11 02:08:01;;;;;;;16.92;11.05;;;15.20;99.90;;;;;;5016008;28;20228;-78
2023/09/11 02:10:28;;;;;;;15.77;11.30;;;15.50;99.90;;;;;;5020898;28;20222;-78
2023/09/11 02:12:54;;;;;;;15.30;10.93;;;15.60;99.90;;;;;;5020386;28;20203;-78
2023/09/11 02:15:21;;;;;;;17.40;11.23;;;15.70;99.90;;;;;;5035781;28;20220;-77
2023/09/11 02:17:48;;;;;;;18.52;10.82;;;15.70;99.90;;;;;;5020163;28;20209;-78
2023/09/11 02:20:15;;;;;;;14.55;11.02;;;15.70;99.90;;;;;;5036056;28;20195;-78
2023/09/11 02:22:43;;;;;;;15.02;11.35;;;15.80;99.90;;;;;;5027295;28;20204;-78
2023/09/11 02:25:09;;;;;;;11.25;9.48;;;15.70;99.90;;;;;;5017202;28;20220;-77
2023/09/11 02:27:36;;;;;;;16.38;11.00;;;15.40;99.90;;;;;;5015869;28;20687;-78
2023/09/11 02:30:04;;;;;;;13.25;11.32;;;15.30;99.90;;;;;;5017815;28;20225;-78
2023/09/11 02:32:30;;;;;;;11.57;10.38;;;15.20;99.90;;;;;;5030328;28;20720;-78
2023/09/11 02:34:57;;;;;;;14.48;11.60;;;14.90;99.90;;;;;;5020033;28;20752;-78
2023/09/11 02:37:24;;;;;;;10.95;9.77;;;15.00;99.90;;;;;;5023391;28;20570;-78
2023/09/11 02:39:52;;;;;;;8.73;7.75;;;15.00;99.90;;;;;;5033246;28;20202;-77
2023/09/11 02:42:19;;;;;;;24.40;21.77;;;14.80;99.90;;;;;;5029786;28;20200;-78
2023/09/11 02:44:45;;;;;;;34.80;18.85;;;14.70;99.90;;;;;;5017622;28;20230;-77
2023/09/11 02:47:12;;;;;;;19.90;15.13;;;14.60;99.90;;;;;;5018061;28;20205;-78
2023/09/11 02:49:39;;;;;;;17.77;13.63;;;14.50;99.90;;;;;;5016707;28;20579;-77
2023/09/11 02:52:06;;;;;;;21.40;14.73;;;14.60;99.90;;;;;;5016338;28;20224;-78
2023/09/11 02:54:33;;;;;;;20.30;13.93;;;14.60;99.90;;;;;;5030907;28;20232;-77
2023/09/11 02:57:01;;;;;;;17.00;12.77;;;14.60;99.90;;;;;;5031894;28;20625;-78
2023/09/11 02:59:28;;;;;;;15.98;12.10;;;14.70;99.90;;;;;;5018341;28;20219;-77
2023/09/11 03:01:54;;;;;;;15.30;11.88;;;14.90;99.90;;;;;;5017158;28;20200;-79
2023/09/11 03:04:21;;;;;;;18.55;12.27;;;14.90;99.90;;;;;;5027908;28;20208;-78
2023/09/11 03:06:48;;;;;;;15.38;12.48;;;15.10;99.90;;;;;;5017238;28;20203;-77
2023/09/11 03:09:15;;;;;;;18.35;13.02;;;15.20;99.90;;;;;;5025086;28;20210;-77
2023/09/11 03:11:41;;;;;;;16.20;12.40;;;15.20;99.90;;;;;;5022540;28;20314;-78
2023/09/11 03:14:11;;;;;;;16.52;12.70;;;15.30;99.90;;;;;;5016028;28;20201;-77
2023/09/11 03:16:40;;;;;;;14.93;10.88;;;15.40;99.90;;;;;;5016615;28;20243;-78
2023/09/11 03:19:35;;;;;;;17.30;12.23;;;15.30;99.90;;;;;;5015525;28;20212;-78
2023/09/11 03:22:02;;;;;;;15.13;11.57;;;15.10;99.90;;;;;;5009942;28;20202;-77
2023/09/11 03:24:29;;;;;;;16.42;11.38;;;15.10;99.90;;;;;;5015984;28;20594;-78
2023/09/11 03:26:55;;;;;;;18.63;12.40;;;15.10;99.90;;;;;;5016799;28;20552;-78
2023/09/11 03:29:24;;;;;;;14.63;12.30;;;15.10;99.90;;;;;;5016688;28;20207;-77
2023/09/11 03:31:50;;;;;;;13.60;10.90;;;15.20;99.90;;;;;;5015729;28;20769;-78
2023/09/11 03:34:17;;;;;;;17.95;11.88;;;15.30;99.90;;;;;;5016743;28;20700;-78
2023/09/11 03:36:44;;;;;;;14.30;11.23;;;15.40;99.90;;;;;;5016508;28;20228;-78
2023/09/11 03:39:11;;;;;;;15.60;11.45;;;15.20;99.90;;;;;;5015579;28;20234;-78
2023/09/11 03:41:37;;;;;;;15.57;10.23;;;15.20;99.90;;;;;;5015583;28;20223;-78
2023/09/11 03:44:04;;;;;;;15.15;9.85;;;15.10;99.90;;;;;;5015653;28;20212;-77
2023/09/11 03:46:32;;;;;;;10.68;9.10;;;14.90;99.90;;;;;;5015677;28;20224;-78
2023/09/11 03:48:59;;;;;;;9.48;8.63;;;14.60;99.90;;;;;;5015436;28;20219;-79
2023/09/11 03:51:26;;;;;;;9.05;8.15;;;14.60;99.90;;;;;;5015111;28;20234;-78
2023/09/11 03:53:53;;;;;;;17.73;8.10;;;14.50;99.90;;;;;;5015337;28;20208;-77
2023/09/11 03:56:19;;;;;;;9.88;8.85;;;14.40;99.90;;;;;;5015264;28;20220;-78
2023/09/11 03:58:46;;;;;;;12.43;9.73;;;14.40;99.90;;;;;;5015692;28;20215;-78
2023/09/11 04:01:13;;;;;;;14.82;11.05;;;14.60;99.90;;;;;;5015107;28;20274;-78
2023/09/11 04:03:42;;;;;;;12.00;9.60;;;14.70;99.90;;;;;;5015163;28;20234;-78
2023/09/11 04:06:09;;;;;;;15.20;11.15;;;14.70;99.90;;;;;;5015596;28;20227;-78
2023/09/11 04:08:36;;;;;;;16.05;11.48;;;14.60;99.90;;;;;;5015162;28;20205;-79
2023/09/11 04:11:02;;;;;;;15.05;11.32;;;14.60;99.90;;;;;;5014002;28;20220;-77
2023/09/11 04:13:29;;;;;;;18.17;13.02;;;14.60;99.90;;;;;;5015386;28;20210;-78
2023/09/11 04:15:56;;;;;;;15.88;11.43;;;14.50;99.90;;;;;;5015449;28;20224;-78
2023/09/11 04:18:23;;;;;;;13.60;9.85;;;14.50;99.90;;;;;;5014924;28;20218;-78
2023/09/11 04:20:51;;;;;;;12.90;10.15;;;14.40;99.90;;;;;;5014971;28;20204;-78
2023/09/11 04:23:19;;;;;;;16.33;12.70;;;14.30;99.90;;;;;;5015580;28;20232;-78
2023/09/11 04:25:46;;;;;;;16.73;12.85;;;14.50;99.90;;;;;;5015225;28;20228;-77
2023/09/11 04:28:13;;;;;;;20.10;12.82;;;14.40;99.90;;;;;;5015126;28;20200;-78
2023/09/11 04:30:39;;;;;;;16.15;11.82;;;14.50;99.90;;;;;;5014007;28;20700;-78
2023/09/11 04:33:06;;;;;;;20.17;12.57;;;14.50;99.90;;;;;;5015050;28;20596;-78
2023/09/11 04:35:33;;;;;;;15.80;12.43;;;14.50;99.90;;;;;;5015175;28;20701;-78
2023/09/11 04:38:01;;;;;;;15.77;11.73;;;14.60;99.90;;;;;;5014575;28;20204;-78
2023/09/11 04:40:28;;;;;;;16.35;13.05;;;14.60;99.90;;;;;;5014391;28;20227;-78
2023/09/11 04:42:54;;;;;;;14.95;11.65;;;14.60;99.90;;;;;;5014310;28;20204;-78
2023/09/11 04:45:21;;;;;;;15.05;12.52;;;14.70;99.90;;;;;;5014870;28;20228;-78
2023/09/11 04:47:48;;;;;;;14.07;10.63;;;14.70;99.90;;;;;;5014488;28;20209;-78
2023/09/11 04:50:15;;;;;;;14.68;11.35;;;14.70;99.90;;;;;;5014272;28;20214;-78
2023/09/11 04:52:42;;;;;;;11.52;8.93;;;14.40;99.90;;;;;;5010328;28;20232;-78
2023/09/11 04:55:11;;;;;;;8.60;7.63;;;14.20;99.90;;;;;;5011842;28;20220;-77
2023/09/11 04:57:39;;;;;;;13.55;8.57;;;14.20;99.90;;;;;;5009881;28;20211;-78
2023/09/11 05:00:09;;;;;;;14.68;8.95;;;14.20;99.90;;;;;;5011831;28;20208;-77
2023/09/11 05:02:36;;;;;;;11.43;8.98;;;14.20;99.90;;;;;;5012999;28;20250;-78
2023/09/11 05:05:04;;;;;;;9.40;7.20;;;14.30;99.90;;;;;;5017743;28;20216;-78
2023/09/11 05:07:31;;;;;;;15.35;9.38;;;14.40;99.90;;;;;;5013933;28;20231;-77
2023/09/11 05:09:59;;;;;;;12.77;9.07;;;14.50;99.90;;;;;;5009926;28;20287;-79
2023/09/11 05:12:27;;;;;;;16.38;10.48;;;14.50;99.90;;;;;;5013073;28;20259;-78
2023/09/11 05:14:54;;;;;;;19.00;10.65;;;14.70;99.90;;;;;;5014349;28;20220;-78
2023/09/11 05:17:21;;;;;;;20.55;11.25;;;14.80;99.90;;;;;;5012571;28;20203;-77
2023/09/11 05:19:48;;;;;;;36.95;11.27;;;14.90;99.90;;;;;;5013478;28;20219;-79
2023/09/11 05:22:14;;;;;;;31.48;11.00;;;14.70;99.90;;;;;;5013150;28;20202;-78
2023/09/11 05:24:41;;;;;;;29.45;10.45;;;14.70;99.90;;;;;;5012811;28;20240;-77
2023/09/11 05:27:08;;;;;;;30.40;11.13;;;14.80;99.90;;;;;;5012374;28;20208;-78
2023/09/11 05:29:36;;;;;;;38.53;12.80;;;14.80;99.90;;;;;;5014424;28;20200;-77
2023/09/11 05:32:03;;;;;;;27.55;10.88;;;14.80;99.90;;;;;;5013728;28;20684;-78
2023/09/11 05:34:30;;;;;;;24.13;10.02;;;14.90;99.90;;;;;;5014047;28;20200;-77
2023/09/11 05:36:56;;;;;;;14.85;8.93;;;14.90;99.90;;;;;;5014201;28;20200;-78
2023/09/11 05:39:23;;;;;;;24.30;11.63;;;15.00;99.90;;;;;;5014241;28;20208;-78
2023/09/11 05:41:50;;;;;;;24.92;13.23;;;15.10;99.90;;;;;;5013337;28;20205;-77
2023/09/11 05:44:17;;;;;;;24.80;13.25;;;15.10;99.90;;;;;;5017820;28;20233;-78
2023/09/11 05:46:45;;;;;;;20.83;13.85;;;15.20;99.90;;;;;;5017586;28;20204;-78
2023/09/11 05:49:12;;;;;;;22.48;13.40;;;15.30;99.90;;;;;;5017033;28;20211;-77
2023/09/11 05:51:39;;;;;;;20.67;12.13;;;15.40;99.90;;;;;;5017614;28;20223;-78
2023/09/11 05:54:08;;;;;;;20.20;12.70;;;15.60;99.90;;;;;;5017812;28;20200;-78
2023/09/11 05:56:35;;;;;;;18.80;12.98;;;15.70;99.90;;;;;;5017569;28;20227;-78
2023/09/11 05:59:02;;;;;;;19.27;12.65;;;15.80;99.90;;;;;;5018182;28;20212;-78
2023/09/11 06:01:29;;;;;;;16.90;12.98;;;16.10;99.90;;;;;;5018190;28;20301;-78
2023/09/11 06:03:57;;;;;;;19.38;14.63;;;16.20;99.90;;;;;;5018272;28;20210;-79
2023/09/11 06:06:23;;;;;;;16.90;13.52;;;16.40;99.90;;;;;;5018264;28;20224;-78
2023/09/11 06:08:50;;;;;;;24.27;13.85;;;16.70;99.90;;;;;;5017397;28;20210;-78
2023/09/11 06:11:17;;;;;;;17.85;13.05;;;16.60;99.90;;;;;;5017081;28;20212;-79
2023/09/11 06:13:44;;;;;;;21.13;14.10;;;16.70;99.90;;;;;;5018327;28;20214;-78
2023/09/11 06:16:12;;;;;;;22.23;14.60;;;16.70;99.90;;;;;;5015258;28;20228;-79
2023/09/11 06:18:38;;;;;;;32.60;15.52;;;16.70;99.90;;;;;;5017555;28;20220;-78
2023/09/11 06:21:07;;;;;;;24.00;15.50;;;16.70;99.90;;;;;;5017683;28;20215;-77
2023/09/11 06:23:34;;;;;;;28.05;15.35;;;16.80;99.90;;;;;;5018258;28;20220;-78
2023/09/11 06:26:00;;;;;;;23.38;15.15;;;16.80;99.90;;;;;;5017379;28;20226;-77
2023/09/11 06:28:27;;;;;;;22.15;15.48;;;16.90;99.90;;;;;;5015983;28;20287;-78
2023/09/11 06:30:54;;;;;;;22.30;15.25;;;16.90;99.90;;;;;;5016528;28;20579;-79
2023/09/11 06:33:21;;;;;;;24.15;15.00;;;17.00;99.90;;;;;;5018192;28;20288;-78
2023/09/11 06:35:48;;;;;;;21.38;15.10;;;17.00;99.90;;;;;;5018033;28;20220;-77
2023/09/11 06:38:16;;;;;;;22.17;13.70;;;17.10;99.90;;;;;;5017835;28;20216;-78
2023/09/11 06:40:44;;;;;;;23.00;15.75;;;17.20;99.90;;;;;;5016820;28;20214;-78
2023/09/11 06:43:11;;;;;;;18.38;14.38;;;17.20;99.90;;;;;;5017376;28;20208;-77
2023/09/11 06:45:38;;;;;;;18.02;14.10;;;17.20;99.90;;;;;;5017523;28;20231;-78
2023/09/11 06:48:06;;;;;;;23.65;15.02;;;17.30;99.90;;;;;;5017415;28;20201;-78
2023/09/11 06:50:32;;;;;;;20.05;15.05;;;17.30;99.90;;;;;;5016116;28;20207;-78
2023/09/11 06:52:59;;;;;;;23.92;15.15;;;17.40;99.90;;;;;;5014858;28;20271;-77
2023/09/11 06:55:27;;;;;;;18.95;14.32;;;17.40;99.90;;;;;;5016059;28;20220;-78
2023/09/11 06:57:58;;;;;;;23.83;15.27;;;17.40;99.90;;;;;;5014936;28;21048;-78
2023/09/11 07:00:25;;;;;;;26.02;16.98;;;17.60;99.90;;;;;;5016666;28;20207;-79
2023/09/11 07:02:52;;;;;;;23.27;16.05;;;17.70;99.90;;;;;;5016667;28;20207;-78
2023/09/11 07:05:20;;;;;;;23.25;15.85;;;17.70;99.90;;;;;;5016133;28;20692;-78
2023/09/11 07:07:48;;;;;;;21.27;17.05;;;17.90;99.90;;;;;;5016883;28;20266;-78
2023/09/11 07:10:17;;;;;;;24.33;15.93;;;18.00;99.90;;;;;;5016778;28;20573;-78
2023/09/11 07:12:46;;;;;;;21.65;15.23;;;18.20;99.90;;;;;;5015911;28;20256;-79
2023/09/11 07:15:13;;;;;;;21.35;15.32;;;18.30;99.90;;;;;;5017003;28;20247;-78
2023/09/11 07:17:39;;;;;;;18.60;15.52;;;18.40;99.90;;;;;;5016452;28;20408;-79
2023/09/11 07:20:09;;;;;;;20.17;15.65;;;18.50;99.90;;;;;;5014724;28;20578;-78
2023/09/11 07:22:36;;;;;;;20.98;14.68;;;18.60;99.90;;;;;;5016030;28;20669;-78
2023/09/11 07:25:03;;;;;;;18.75;15.05;;;18.70;99.90;;;;;;5016575;28;20230;-79
2023/09/11 07:27:33;;;;;;;21.60;16.27;;;18.80;99.90;;;;;;5016594;28;20212;-78
2023/09/11 07:30:01;;;;;;;19.10;15.50;;;18.90;99.90;;;;;;5016855;28;20276;-78
2023/09/11 07:32:30;;;;;;;20.70;15.52;;;19.00;99.90;;;;;;5015672;28;20231;-77
2023/09/11 07:34:57;;;;;;;23.15;16.05;;;19.20;99.90;;;;;;5015847;28;20701;-78
2023/09/11 07:37:24;;;;;;;23.20;15.63;;;19.20;99.90;;;;;;5016754;28;20204;-78
2023/09/11 07:39:51;;;;;;;19.48;14.45;;;19.30;99.90;;;;;;5016478;28;20207;-78
2023/09/11 07:42:18;;;;;;;20.05;14.55;;;19.30;99.90;;;;;;5015486;28;20587;-76
2023/09/11 07:44:45;;;;;;;19.63;14.90;;;19.50;99.90;;;;;;5017413;28;20598;-78
2023/09/11 07:47:13;;;;;;;19.00;14.60;;;19.50;99.90;;;;;;5016967;28;20601;-79
2023/09/11 07:49:40;;;;;;;22.25;15.00;;;19.70;99.90;;;;;;5017120;28;20934;-78
2023/09/11 07:52:07;;;;;;;22.70;15.73;;;19.80;99.90;;;;;;5016034;28;20588;-78
2023/09/11 07:54:33;;;;;;;20.42;15.27;;;20.00;99.90;;;;;;5006184;28;20230;-79
2023/09/11 07:57:01;;;;;;;21.73;14.75;;;20.00;99.90;;;;;;5016017;28;20809;-79
2023/09/11 07:59:27;;;;;;;22.27;14.68;;;20.20;99.90;;;;;;5014152;28;20652;-78
2023/09/11 08:01:54;;;;;;;19.98;13.98;;;20.40;99.90;;;;;;5015855;28;20197;-78
2023/09/11 08:04:22;;;;;;;18.65;13.93;;;20.50;99.90;;;;;;5016417;28;20206;-78
2023/09/11 08:06:49;;;;;;;18.02;13.68;;;20.60;99.90;;;;;;5016581;28;20669;-79
2023/09/11 08:09:16;;;;;;;20.17;14.65;;;20.70;99.90;;;;;;5016652;28;20216;-79
2023/09/11 08:11:43;;;;;;;19.67;13.70;;;20.90;99.90;;;;;;5012553;28;20201;-78
2023/09/11 08:14:09;;;;;;;15.38;13.00;;;21.20;99.90;;;;;;5015468;28;20216;-78
2023/09/11 08:16:36;;;;;;;22.80;14.00;;;21.40;99.90;;;;;;5015826;28;20239;-79
2023/09/11 08:19:04;;;;;;;20.77;13.48;;;21.50;99.90;;;;;;5015588;28;20215;-78
2023/09/11 08:21:32;;;;;;;24.55;14.15;;;21.70;99.90;;;;;;5012757;28;20214;-78
2023/09/11 08:23:59;;;;;;;19.50;13.68;;;21.60;99.90;;;;;;5015056;28;20206;-78
2023/09/11 08:26:26;;;;;;;20.38;12.80;;;21.90;99.90;;;;;;5015495;28;20220;-78
2023/09/11 08:28:52;;;;;;;20.95;12.88;;;22.00;99.90;;;;;;5014688;28;20282;-78
2023/09/11 08:31:19;;;;;;;18.73;12.15;;;22.10;99.90;;;;;;5015030;28;20211;-79
2023/09/11 08:33:46;;;;;;;18.25;12.00;;;22.40;99.90;;;;;;5014120;28;20234;-78
2023/09/11 08:36:13;;;;;;;23.52;10.98;;;22.50;99.90;;;;;;5013778;28;20227;-78
2023/09/11 08:38:44;;;;;;;15.45;11.48;;;22.50;99.90;;;;;;5014046;28;20208;-79
2023/09/11 08:41:12;;;;;;;17.85;10.23;;;22.60;99.90;;;;;;5014823;28;20254;-78
2023/09/11 08:43:39;;;;;;;19.50;11.20;;;22.60;99.90;;;;;;5015138;28;20207;-78
2023/09/11 08:46:07;;;;;;;17.42;9.63;;;22.80;99.90;;;;;;5014232;28;20252;-77
2023/09/11 08:48:37;;;;;;;23.27;10.13;;;23.10;99.90;;;;;;5013819;28;20208;-76
2023/09/11 08:51:10;;;;;;;19.60;9.13;;;23.30;99.90;;;;;;5014643;28;20208;-78
2023/09/11 08:53:40;;;;;;;14.82;8.82;;;23.30;99.90;;;;;;5015849;28;20267;-78
2023/09/11 08:56:10;;;;;;;14.25;8.05;;;23.60;99.90;;;;;;5014664;28;20234;-78
2023/09/11 08:58:40;;;;;;;16.33;8.27;;;23.70;99.90;;;;;;5011953;28;20200;-78
2023/09/11 09:01:07;;;;;;;15.90;7.97;;;24.00;99.90;;;;;;5013784;28;20211;-78
2023/09/11 09:03:35;;;;;;;19.00;7.25;;;24.20;99.90;;;;;;5014877;28;20295;-77
2023/09/11 09:06:03;;;;;;;14.77;7.00;;;24.40;99.90;;;;;;5015486;28;20697;-78
2023/09/11 09:08:31;;;;;;;15.52;6.65;;;24.30;99.90;;;;;;5015231;28;20210;-78
2023/09/11 09:10:59;;;;;;;16.02;6.57;;;24.50;99.90;;;;;;5014519;28;20215;-78
2023/09/11 09:13:29;;;;;;;12.40;6.80;;;24.90;99.90;;;;;;5014618;28;20217;-78
2023/09/11 09:15:56;;;;;;;19.27;7.55;;;25.40;99.90;;;;;;5015305;28;20216;-78
2023/09/11 09:18:22;;;;;;;17.70;7.15;;;25.90;99.90;;;;;;5014295;28;20208;-77
2023/09/11 09:20:49;;;;;;;16.10;6.63;;;26.40;99.90;;;;;;5014157;28;20210;-79
2023/09/11 09:23:17;;;;;;;16.83;6.95;;;26.60;99.90;;;;;;5014121;28;20246;-78
2023/09/11 09:25:44;;;;;;;14.85;6.85;;;26.60;99.90;;;;;;5016597;28;20228;-78
2023/09/11 09:28:29;;;;;;;17.73;7.25;;;27.00;99.90;;;;;;5015635;28;20214;-78
2023/09/11 09:30:56;;;;;;;15.30;6.60;;;27.40;99.90;;;;;;5015558;28;20188;-78
2023/09/11 09:33:25;;;;;;;17.77;7.18;;;27.60;99.90;;;;;;5016367;28;20282;-79
2023/09/11 09:35:52;;;;;;;18.92;6.68;;;27.80;99.90;;;;;;5016417;28;20230;-78
2023/09/11 09:38:20;;;;;;;15.00;6.68;;;28.00;99.90;;;;;;5016062;28;20212;-77
2023/09/11 09:40:49;;;;;;;12.30;6.35;;;28.10;99.90;;;;;;5017676;28;20202;-78
2023/09/11 09:43:17;;;;;;;18.77;7.35;;;28.40;99.90;;;;;;5016828;28;20204;-79
2023/09/11 09:45:45;;;;;;;18.77;7.50;;;28.30;99.90;;;;;;5016630;28;20224;-78
2023/09/11 09:48:14;;;;;;;15.43;6.28;;;28.50;99.90;;;;;;5017252;28;20201;-79
2023/09/11 09:50:51;;;;;;;15.27;6.53;;;28.90;99.90;;;;;;5016565;28;20210;-78
2023/09/11 09:53:26;;;;;;;18.90;7.00;;;28.90;99.90;;;;;;5017587;28;20220;-79
2023/09/11 09:55:55;;;;;;;16.20;6.43;;;28.80;99.90;;;;;;5015522;28;20737;-77
2023/09/11 09:58:27;;;;;;;19.25;7.05;;;28.90;99.90;;;;;;5015411;28;20204;-78
2023/09/11 10:01:00;;;;;;;13.43;6.07;;;29.10;99.90;;;;;;5014674;28;20704;-78
2023/09/11 10:03:28;;;;;;;19.90;6.78;;;29.30;99.90;;;;;;5015973;28;20200;-79
2023/09/11 10:05:55;;;;;;;17.95;6.85;;;29.30;99.90;;;;;;5015282;28;20235;-78
2023/09/11 10:08:22;;;;;;;15.32;6.68;;;29.70;99.90;;;;;;5015385;28;20287;-78
2023/09/11 10:10:49;;;;;;;15.95;6.40;;;29.60;99.90;;;;;;5014694;28;20200;-77
2023/09/11 10:13:17;;;;;;;18.05;6.65;;;29.70;99.90;;;;;;5016784;28;20234;-77
2023/09/11 10:15:45;;;;;;;16.67;6.30;;;29.90;99.90;;;;;;5016281;28;20228;-78
2023/09/11 10:18:13;;;;;;;15.55;6.68;;;29.80;99.90;;;;;;5015018;28;20215;-78
2023/09/11 10:20:41;;;;;;;16.48;6.72;;;29.60;99.90;;;;;;5015074;28;20656;-76
2023/09/11 10:23:09;;;;;;;13.65;6.28;;;29.50;99.90;;;;;;5015021;28;20207;-77
2023/09/11 10:25:40;;;;;;;13.98;6.40;;;30.00;99.90;;;;;;5014901;28;20587;-78
2023/09/11 10:28:08;;;;;;;19.33;6.65;;;29.90;99.90;;;;;;5014063;28;20204;-78
2023/09/11 10:30:41;;;;;;;15.05;6.53;;;30.00;99.90;;;;;;5017161;28;20200;-78
2023/09/11 10:33:20;;;;;;;12.77;6.22;;;30.20;99.90;;;;;;5018709;28;20237;-78
2023/09/11 10:35:52;;;;;;;14.77;6.28;;;30.20;99.90;;;;;;5018574;28;20223;-78
2023/09/11 10:38:20;;;;;;;14.05;6.70;;;29.80;99.90;;;;;;5018485;28;20660;-78
2023/09/11 10:40:49;;;;;;;14.85;6.80;;;29.40;99.90;;;;;;5019316;28;20220;-79
2023/09/11 10:43:16;;;;;;;11.15;6.15;;;29.80;99.90;;;;;;5019034;28;20200;-81
2023/09/11 10:45:43;;;;;;;13.98;7.32;;;30.00;99.90;;;;;;5019465;28;20246;-78
2023/09/11 10:48:29;;;;;;;14.70;6.97;;;30.50;99.90;;;;;;5018485;28;20208;-78
2023/09/11 10:50:57;;;;;;;13.95;6.63;;;30.20;99.90;;;;;;5020142;28;20215;-78
2023/09/11 10:53:27;;;;;;;18.30;6.43;;;30.20;99.90;;;;;;5019109;28;20267;-78
2023/09/11 10:55:55;;;;;;;14.40;6.35;;;30.60;99.90;;;;;;5018646;28;20232;-78
2023/09/11 10:58:23;;;;;;;15.32;6.25;;;30.80;99.90;;;;;;5019098;28;20212;-77
2023/09/11 11:00:54;;;;;;;15.40;6.60;;;30.50;99.90;;;;;;5018054;28;20201;-78
2023/09/11 11:03:22;;;;;;;14.55;6.05;;;30.40;99.90;;;;;;5019550;28;20211;-78
2023/09/11 11:05:50;;;;;;;13.40;5.63;;;30.60;99.90;;;;;;5017558;28;20351;-77
2023/09/11 11:08:17;;;;;;;10.73;5.72;;;30.50;99.90;;;;;;5014591;28;20215;-78
2023/09/11 11:10:47;;;;;;;11.63;5.30;;;30.20;99.90;;;;;;5014376;28;20207;-77
2023/09/11 11:13:14;;;;;;;13.48;6.75;;;30.50;99.90;;;;;;5016237;28;20220;-78
2023/09/11 11:15:40;;;;;;;15.68;5.93;;;30.60;99.90;;;;;;5017573;28;20228;-78
2023/09/11 11:18:12;;;;;;;11.48;5.55;;;30.90;99.90;;;;;;5018400;28;20197;-78
2023/09/11 11:21:04;;;;;;;16.17;6.03;;;30.50;99.90;;;;;;5017977;28;20201;-83
2023/09/11 11:23:33;;;;;;;11.40;5.65;;;31.10;99.90;;;;;;4998116;28;20232;-78
2023/09/11 11:26:02;;;;;;;16.30;5.70;;;31.00;99.90;;;;;;5018253;28;20230;-77
2023/09/11 11:28:39;;;;;;;18.63;7.88;;;31.30;99.90;;;;;;5017192;28;20197;-78
2023/09/11 11:31:08;;;;;;;14.23;6.43;;;31.20;99.90;;;;;;5015887;28;20203;-78
2023/09/11 11:33:36;;;;;;;10.95;5.97;;;31.10;99.90;;;;;;5019759;28;20223;-79
2023/09/11 11:36:07;;;;;;;11.75;6.00;;;31.10;99.90;;;;;;5019416;28;20278;-78
2023/09/11 11:38:35;;;;;;;9.38;6.15;;;31.40;99.90;;;;;;5011238;28;20211;-79
2023/09/11 11:41:02;;;;;;;15.80;5.85;;;31.30;99.90;;;;;;5016271;28;20216;-78
2023/09/11 11:43:29;;;;;;;13.90;5.55;;;31.30;99.90;;;;;;5024858;28;20192;-78
2023/09/11 11:45:56;;;;;;;13.90;5.93;;;30.90;99.90;;;;;;5024459;28;20232;-78
2023/09/11 11:48:23;;;;;;;18.65;7.07;;;30.90;99.90;;;;;;5018170;28;20232;-78
2023/09/11 11:50:50;;;;;;;15.95;6.40;;;31.40;99.90;;;;;;5016246;28;20259;-79
2023/09/11 11:53:20;;;;;;;14.18;6.03;;;31.50;99.90;;;;;;5029727;28;20237;-79
2023/09/11 11:55:48;;;;;;;16.95;5.80;;;31.30;99.90;;;;;;5016991;28;20212;-79
2023/09/11 11:58:16;;;;;;;13.90;6.70;;;31.40;99.90;;;;;;5020715;28;20199;-78
2023/09/11 12:00:56;;;;;;;14.65;5.93;;;31.20;99.90;;;;;;5032927;28;20210;-77
2023/09/11 12:03:22;;;;;;;13.85;5.90;;;31.40;99.90;;;;;;5037871;28;20320;-78
2023/09/11 12:05:49;;;;;;;11.73;5.85;;;31.30;99.90;;;;;;5026344;28;20216;-78
2023/09/11 12:08:17;;;;;;;13.90;6.15;;;31.60;99.90;;;;;;5032277;28;20574;-78
2023/09/11 12:10:48;;;;;;;10.73;5.55;;;31.50;99.90;;;;;;5025175;28;20200;-78
2023/09/11 12:13:15;;;;;;;12.98;5.68;;;31.50;99.90;;;;;;5030560;28;20203;-79
2023/09/11 12:15:42;;;;;;;10.98;4.93;;;31.60;99.90;;;;;;5021235;28;20228;-80
2023/09/11 12:18:13;;;;;;;9.98;4.68;;;31.70;99.90;;;;;;5027579;28;20222;-79
2023/09/11 12:20:50;;;;;;;14.80;5.15;;;31.40;99.90;;;;;;5030155;28;20199;-79
2023/09/11 12:23:18;;;;;;;9.73;4.57;;;31.50;93.70;;;;;;5023668;28;20196;-78
2023/09/11 12:25:44;;;;;;;6.18;4.57;;;31.30;90.10;;;;;;5018515;28;20223;-79
2023/09/11 12:28:12;;;;;;;9.57;4.53;;;31.50;98.50;;;;;;5018529;28;20204;-79
2023/09/11 12:30:39;;;;;;;8.73;5.00;;;31.60;70.50;;;;;;5019771;28;20215;-79
2023/09/11 12:33:08;;;;;;;14.02;4.72;;;31.80;99.90;;;;;;5017411;28;20208;-79
2023/09/11 12:35:36;;;;;;;10.63;5.80;;;32.10;94.40;;;;;;5016760;28;20220;-79